Airfield :
LOGIN :

Register | Disclaimer

   EN    FR    IT 

 










Legend :    VFR   Marginal VFR   IFR   Intensive IFR   Very Intensive IFR
Visi :
Ceiling :
>= 8 km
>= 3000ft
5 to 8 km
1000 to 3000 ft
1500m to 5 km
500 to 1000 ft
800 to 1500m
200 to 500 ft
< 800m
< 200 ft
Symbols :   Thunderstorms  Fog  Heavy snow  Heavy precipitations  Wind > 20 kt
SIGMETs :     Misc.  Thunderstorms  Icing  Turbulence  Mountain Waves  Volcanic Ashes







- Airport Elevation : 50 ft
- IATA code : KOI
- Download approach charts


EGPA - Kirkwall

CURRENT METAR :
  • 190150Z AUTO 18010KT 2700 DZ BKN002/// OVC006/// 11/11 Q1027

EXPIRED METARs :
  • 190120Z AUTO 17008KT 3700 -DZ OVC003/// 11/10 Q1027
  • 190050Z AUTO 17008KT 9999 BKN003/// OVC025/// 10/10 Q1028
  • 190020Z AUTO 17007KT 8000 BKN004/// BKN009/// OVC018/// 10/10 Q1028
  • 182350Z AUTO 16006KT 3700 -DZ BKN003/// OVC011/// 10/10 Q1028 REDZ
  • 182320Z AUTO 15006KT 4200 -DZ BKN003/// BKN007/// OVC037/// 10/09 Q1028 REDZ

TAF TAF EGPA
Valid from the 19 at 00:00 until the 19 at 09:00 UTC


182259Z 1900/1909 18009KT 9999 SCT005 BKN012
TEMPO 1900/1905 4000 -DZ BKN003
PROB40
TEMPO 1900/1905 2000 DZ BR
BECMG 1905/1907 BKN020
PROB40
TEMPO 1907/1909 BKN009
No reported NOTAMs for that airfield.



MET'MAP, your aeronautical weather chart ! - Copyright ORBIFLY December 2007 - Disclaimer

ORBIFLY MET'MAP TEAM :

Programming & Development : Alexandra Zaïnal
Concept & Development : Baudouin d'Aumeries
Co-Development & Prog : Marc-Olivier Méhu
Technical & hardware support : Manuel Goepfert

Contact : metmap@orbifly.com




SOURCES & CREDITS :

   NOAA